Etna, New Hampshire
Current Conditions -  °F | °C
As of 4:53 AM on Thursday 27 Nov 2014 (Local Time) from KLEB Reporting Station
Overcast Overcast  
Wind Chill: 25°   Ceiling: 2200
Heat Index: 30°   Visibility: 10mi
Dew Point: 25°   Wind: 5mph
Humidity: 82%   Direction: 310°NW
Pressure: 29.85"   Gusts: NA
Location:  43.69°N, 72.22°W
Report Text: KLEB 270953Z AUTO 31004KT 10SM OVC022 M01/M04 A2985 RMK AO2 SLP115 T10111039
Loading
Personal Weather Stations






























Interactive Weather Map New forecast layout! Learn more

10-Day Weather Forecast

Advertisements
Track Severe Weather on mobile